Social login voor leden:
METAR EBOS 220420Z 18003KT 1500 MIFG BR NSC 12/10 Q1015 BECMG 3000
TAF AMD TAF AMD EBOS 220218Z 2202/2306 27005KT 3000 BR NSC TEMPO 2202/2206 0400 FG BECMG 2206/2208 9999 NSW

bbq

 

Opendeurdagen 2018 : infodagen opleiding tot privaat piloot

Iedereen is welkom in het clubhuis op onze opendeurdagen op zondag 15 juli, zondag 26 augustus en zondag 23 september 2018, telkens doorlopend van 14 tot 18 uur! Tijdens deze opendeurdagen krijgt u alle informatie betreffende de opleiding tot Privaat Piloot. U kan de handboeken inkijken en vragen stellen aan docenten, flight instructors en ervaren piloten. Bezoek ons modern clubhuis en neem een drankje op ons adembenemend terras met zicht op de runway. We nemen U ook graag mee voor een bezoek aan onze vliegtuigen op Apron 3. Inschrijving voor de opleiding is ter plaatse mogelijk (voorschot €100). Kandidaten die zich hier laten inschrijven kunnen genieten van een korting van €50, dit geldt ook voor de vroege beslissers die zich nu reeds laten inschrijven. Wegens de populariteit van de opleiding, adviseren wij u om tijdig in te schrijven.

 

Opleiding Piloot
Meevliegen
Visit Us
Agenda
Opleiding Piloot
Doopvluchten
Visit Us
Volgende activiteit
Noordzee Vliegclub - Nieuwpoortsesteenweg 947 8400 Oostende - Tel 059 30 04 79 - Dit e-mailadres wordt beveiligd tegen spambots. JavaScript dient ingeschakeld te zijn om het te bekijken.

 - Copyright 2017 ©